Time;durP1;ratioP1;P1;durP2;ratioP2;P2;SDS_P1;SDS_P2;PMS_P1;PMS_P2;Temp;Humidity;BMP_temperature;BMP_pressure;BME280_temperature;BME280_humidity;BME280_pressure;Samples;Min_cycle;Max_cycle;Signal;HPM_P1;HPM_P2
2023/11/21 00:01:39;;;;;;;2.60;1.30;;;;;;;7.56;100.00;98847.13;5075807;28;20557;-79
2023/11/21 00:04:07;;;;;;;3.97;1.30;;;;;;;7.53;100.00;98851.06;5093566;28;20193;-79
2023/11/21 00:06:35;;;;;;;4.07;1.33;;;;;;;7.47;100.00;98833.25;5094240;28;20192;-79
2023/11/21 00:09:03;;;;;;;2.10;1.10;;;;;;;7.42;100.00;98834.94;5092800;28;20203;-80
2023/11/21 00:11:31;;;;;;;1.97;1.10;;;;;;;7.33;100.00;98837.06;5081220;28;20221;-79
2023/11/21 00:13:58;;;;;;;3.33;1.37;;;;;;;7.28;100.00;98839.56;5076105;28;20672;-80
2023/11/21 00:16:26;;;;;;;4.20;1.30;;;;;;;7.25;100.00;98840.03;5093560;28;20196;-79
2023/11/21 00:18:54;;;;;;;4.20;1.40;;;;;;;7.20;100.00;98841.69;5095526;28;20324;-78
2023/11/21 00:21:21;;;;;;;4.13;1.40;;;;;;;7.16;100.00;98843.16;5091562;28;20271;-79
2023/11/21 00:23:49;;;;;;;2.80;1.10;;;;;;;7.10;100.00;98839.50;5089825;28;20360;-79
2023/11/21 00:26:17;;;;;;;2.93;1.27;;;;;;;7.07;100.00;98839.97;5097588;28;20195;-78
2023/11/21 00:28:52;;;;;;;2.40;1.20;;;;;;;7.04;100.00;98843.06;5109865;28;20232;-81
2023/11/21 00:31:20;;;;;;;2.53;1.17;;;;;;;7.01;100.00;98849.63;5099904;28;20191;-79
2023/11/21 00:33:47;;;;;;;3.17;1.57;;;;;;;6.96;100.00;98846.78;5105203;28;20184;-79
2023/11/21 00:36:16;;;;;;;3.73;1.70;;;;;;;6.98;100.00;98855.38;5107813;28;20230;-82
2023/11/21 00:38:45;;;;;;;3.97;1.20;;;;;;;6.95;100.00;98858.47;5109447;28;20217;-78
2023/11/21 00:41:12;;;;;;;4.13;1.33;;;;;;;6.93;100.00;98863.22;5071707;28;20204;-80
2023/11/21 00:43:40;;;;;;;3.30;1.30;;;;;;;6.88;100.00;98857.69;5106220;28;20194;-79
2023/11/21 00:46:07;;;;;;;4.90;1.50;;;;;;;6.85;100.00;98867.97;5098974;28;20230;-78
2023/11/21 00:48:36;;;;;;;2.60;1.23;;;;;;;6.81;100.00;98869.44;5105312;28;20227;-80
2023/11/21 00:51:05;;;;;;;2.80;1.37;;;;;;;6.76;100.00;98867.41;5100140;28;20203;-79
2023/11/21 00:53:33;;;;;;;4.17;1.70;;;;;;;6.71;100.00;98875.22;5101409;28;20192;-80
2023/11/21 00:56:00;;;;;;;3.80;1.67;;;;;;;6.64;100.00;98869.91;5090384;28;20211;-79
2023/11/21 00:58:28;;;;;;;3.83;1.90;;;;;;;6.57;100.00;98869.16;5096225;28;20310;-79
2023/11/21 01:00:56;;;;;;;4.20;1.60;;;;;;;6.49;100.00;98872.03;5082657;28;20218;-79
2023/11/21 01:03:24;;;;;;;3.20;1.60;;;;;;;6.40;100.00;98859.16;5091607;28;20197;-79
2023/11/21 01:05:53;;;;;;;3.27;1.57;;;;;;;6.33;100.00;98853.06;5110145;27;20709;-79
2023/11/21 01:08:21;;;;;;;4.97;1.73;;;;;;;6.28;100.00;98842.25;5086843;28;20282;-79
2023/11/21 01:10:48;;;;;;;6.90;1.77;;;;;;;6.25;100.00;98842.69;5098562;28;20199;-79
2023/11/21 01:13:17;;;;;;;5.47;1.60;;;;;;;6.30;100.00;98842.88;5088058;28;20238;-79
2023/11/21 01:15:45;;;;;;;4.47;1.90;;;;;;;6.29;100.00;98836.72;5092757;28;20285;-79
2023/11/21 01:18:13;;;;;;;3.50;1.77;;;;;;;6.31;100.00;98828.50;5086885;28;20272;-80
2023/11/21 01:20:41;;;;;;;2.87;1.73;;;;;;;6.29;100.00;98826.09;5095897;28;20202;-79
2023/11/21 01:23:08;;;;;;;4.33;1.50;;;;;;;6.34;100.00;98830.78;5086091;28;20220;-81
2023/11/21 01:25:36;;;;;;;4.60;1.70;;;;;;;6.38;100.00;98830.13;5093017;28;20572;-80
2023/11/21 01:28:03;;;;;;;3.57;1.43;;;;;;;6.44;100.00;98829.28;5087569;28;20188;-80
2023/11/21 01:30:32;;;;;;;3.43;1.47;;;;;;;6.45;100.00;98828.25;5091587;28;20221;-80
2023/11/21 01:32:59;;;;;;;3.07;1.40;;;;;;;6.50;100.00;98815.13;5093854;28;20196;-81
2023/11/21 01:35:27;;;;;;;5.17;1.53;;;;;;;6.55;100.00;98809.16;5095956;28;20218;-79
2023/11/21 01:37:54;;;;;;;5.00;1.73;;;;;;;6.53;100.00;98796.06;5093115;28;20191;-79
2023/11/21 01:40:22;;;;;;;3.63;1.40;;;;;;;6.60;100.00;98791.53;5097191;28;20204;-78
2023/11/21 01:42:50;;;;;;;5.07;1.60;;;;;;;6.60;100.00;98796.84;5102104;28;20201;-79
2023/11/21 01:45:18;;;;;;;2.90;1.43;;;;;;;6.62;100.00;98788.66;5101570;28;20198;-77
2023/11/21 01:47:46;;;;;;;3.83;1.40;;;;;;;6.61;100.00;98787.03;5105386;28;20195;-78
2023/11/21 01:50:16;;;;;;;3.33;1.50;;;;;;;6.58;100.00;98788.25;5082533;28;20251;-77
2023/11/21 01:52:46;;;;;;;4.23;1.50;;;;;;;6.58;100.00;98784.78;5094548;28;20192;-80
2023/11/21 01:55:18;;;;;;;2.53;1.27;;;;;;;6.58;100.00;98777.59;5086526;28;20216;-77
2023/11/21 01:57:57;;;;;;;3.03;1.23;;;;;;;6.68;100.00;98774.47;5112397;27;20199;-82
2023/11/21 02:00:27;;;;;;;2.77;1.60;;;;;;;6.69;100.00;98778.78;5089163;28;20203;-80
2023/11/21 02:02:56;;;;;;;3.23;1.20;;;;;;;6.69;100.00;98781.44;5097668;28;20206;-78
2023/11/21 02:05:25;;;;;;;4.50;1.50;;;;;;;6.68;100.00;98777.13;5102389;28;20188;-79
2023/11/21 02:07:54;;;;;;;4.17;1.50;;;;;;;6.63;100.00;98784.94;5100893;28;20212;-81
2023/11/21 02:10:22;;;;;;;3.53;1.30;;;;;;;6.60;100.00;98774.75;5099332;28;20218;-79
2023/11/21 02:12:51;;;;;;;3.87;1.43;;;;;;;6.55;100.00;98780.72;5096450;28;20221;-79
2023/11/21 02:15:20;;;;;;;2.97;1.30;;;;;;;6.55;100.00;98774.56;5089214;28;20771;-79
2023/11/21 02:17:51;;;;;;;4.87;1.37;;;;;;;6.54;100.00;98772.94;5067144;28;20203;-78
2023/11/21 02:20:22;;;;;;;3.67;1.30;;;;;;;6.53;100.00;98768.66;5104371;28;20833;-83
2023/11/21 02:22:57;;;;;;;2.30;1.30;;;;;;;6.49;100.00;98770.09;5111305;28;20227;-80
2023/11/21 02:25:33;;;;;;;2.63;1.10;;;;;;;6.46;100.00;98778.50;5095885;28;20279;-79
2023/11/21 02:28:02;;;;;;;3.73;1.37;;;;;;;6.41;100.00;98773.00;5105288;28;20236;-80
2023/11/21 02:47:08;;;;;;;3.53;1.30;;;;;;;6.80;100.00;98759.47;5083480;28;20295;-78
2023/11/21 02:49:35;;;;;;;5.33;1.50;;;;;;;6.81;100.00;98746.97;5094186;28;20187;-80
2023/11/21 02:52:03;;;;;;;3.27;1.60;;;;;;;6.90;100.00;98750.97;5098142;28;20302;-78
2023/11/21 02:54:30;;;;;;;4.40;1.30;;;;;;;6.91;100.00;98752.59;5100975;28;20180;-78
2023/11/21 02:56:57;;;;;;;3.43;1.40;;;;;;;7.06;100.00;98758.41;5098949;28;20636;-79
2023/11/21 02:59:24;;;;;;;3.07;1.27;;;;;;;7.18;100.00;98758.53;5095874;28;20753;-78
2023/11/21 03:01:51;;;;;;;3.43;1.40;;;;;;;7.28;100.00;98751.66;5096592;28;20199;-79
2023/11/21 03:04:19;;;;;;;3.30;1.07;;;;;;;7.32;100.00;98747.53;5099577;28;20196;-78
2023/11/21 03:06:46;;;;;;;3.70;1.10;;;;;;;7.30;100.00;98741.59;5091913;28;20218;-78
2023/11/21 03:09:12;;;;;;;3.13;1.10;;;;;;;7.50;100.00;98738.75;5101996;28;20193;-80
2023/11/21 03:11:39;;;;;;;2.07;1.10;;;;;;;7.50;100.00;98749.41;5100877;28;20196;-80
2023/11/21 03:14:06;;;;;;;2.70;1.50;;;;;;;7.58;100.00;98758.94;5103018;28;20246;-80
2023/11/21 03:16:32;;;;;;;3.13;1.50;;;;;;;7.61;100.00;98758.50;5108169;28;20255;-79
2023/11/21 03:19:00;;;;;;;2.40;1.50;;;;;;;7.64;100.00;98758.06;5100336;28;20198;-80
2023/11/21 03:21:27;;;;;;;1.83;1.03;;;;;;;7.58;100.00;98765.09;5090480;28;20286;-80
2023/11/21 03:23:54;;;;;;;2.03;1.03;;;;;;;7.61;100.00;98767.31;5104725;28;20350;-79
2023/11/21 03:26:20;;;;;;;2.90;0.97;;;;;;;7.62;100.00;98762.78;5087281;28;20202;-79
2023/11/21 03:28:47;;;;;;;2.20;0.90;;;;;;;7.59;100.00;98761.41;5102156;28;20184;-80
2023/11/21 03:31:17;;;;;;;3.60;1.20;;;;;;;7.63;100.00;98765.25;5105143;28;20192;-79
2023/11/21 03:33:45;;;;;;;8.10;2.07;;;;;;;7.62;100.00;98760.13;5103679;28;20199;-78
2023/11/21 03:36:12;;;;;;;3.23;1.37;;;;;;;7.59;100.00;98760.59;5092744;28;20731;-80
2023/11/21 03:38:39;;;;;;;3.77;1.20;;;;;;;7.55;100.00;98754.88;5101946;28;20192;-80
2023/11/21 03:41:06;;;;;;;3.43;1.03;;;;;;;7.59;100.00;98755.25;5105809;28;20584;-82
2023/11/21 03:43:32;;;;;;;3.27;1.17;;;;;;;7.49;100.00;98753.09;5112240;28;20286;-78
2023/11/21 03:45:59;;;;;;;4.37;1.20;;;;;;;7.59;100.00;98750.75;5112505;28;20191;-81
2023/11/21 03:48:26;;;;;;;4.77;1.20;;;;;;;7.60;100.00;98751.56;5107310;28;20366;-80
2023/11/21 03:50:52;;;;;;;4.23;1.07;;;;;;;7.59;100.00;98753.41;5105357;28;20195;-80
2023/11/21 03:53:19;;;;;;;3.63;1.10;;;;;;;7.64;100.00;98747.41;5101286;28;20198;-80
2023/11/21 03:55:46;;;;;;;3.83;1.03;;;;;;;7.75;100.00;98751.97;5100735;28;20207;-84
2023/11/21 03:58:13;;;;;;;4.67;1.23;;;;;;;7.77;100.00;98764.06;5095091;28;20216;-79
2023/11/21 04:00:39;;;;;;;3.70;1.10;;;;;;;7.79;100.00;98755.84;5100664;28;20216;-79
2023/11/21 04:03:06;;;;;;;4.97;1.30;;;;;;;7.74;100.00;98748.53;5097506;28;20281;-79
2023/11/21 04:05:33;;;;;;;4.33;1.00;;;;;;;7.64;100.00;98740.22;5085851;28;20192;-80
2023/11/21 04:08:00;;;;;;;2.87;1.07;;;;;;;7.62;100.00;98742.28;5092657;28;20200;-81
2023/11/21 04:10:26;;;;;;;3.13;1.07;;;;;;;7.59;100.00;98747.25;5100263;28;20723;-80
2023/11/21 04:12:53;;;;;;;2.87;1.00;;;;;;;7.59;100.00;98756.06;5112612;28;20198;-79
2023/11/21 04:15:20;;;;;;;4.23;1.13;;;;;;;7.48;100.00;98746.13;5112186;28;20207;-81
2023/11/21 04:17:46;;;;;;;2.87;1.10;;;;;;;7.44;100.00;98752.94;5094679;28;20184;-78
2023/11/21 04:20:14;;;;;;;4.80;1.13;;;;;;;7.40;100.00;98755.25;5099004;28;20681;-80
2023/11/21 04:22:43;;;;;;;4.17;1.80;;;;;;;7.39;100.00;98756.25;5099481;28;20191;-79
2023/11/21 04:25:13;;;;;;;3.77;1.10;;;;;;;7.41;100.00;98751.53;5096918;28;20188;-80
2023/11/21 04:27:43;;;;;;;3.03;1.40;;;;;;;7.37;100.00;98747.66;5107047;28;20192;-79
2023/11/21 04:30:11;;;;;;;4.57;1.33;;;;;;;7.35;100.00;98746.28;5103991;28;20196;-78
2023/11/21 04:32:39;;;;;;;3.67;1.10;;;;;;;7.35;100.00;98752.41;5090138;28;20671;-79
2023/11/21 04:35:06;;;;;;;3.67;1.23;;;;;;;7.30;100.00;98754.94;5100878;28;20188;-80
2023/11/21 04:37:32;;;;;;;5.53;1.43;;;;;;;7.25;100.00;98754.75;5101666;28;20200;-79
2023/11/21 04:39:59;;;;;;;4.03;1.40;;;;;;;7.21;100.00;98766.06;5097410;28;20245;-79
2023/11/21 04:42:26;;;;;;;3.60;1.20;;;;;;;7.16;100.00;98763.25;5105364;28;20192;-79
2023/11/21 04:44:53;;;;;;;2.70;1.10;;;;;;;7.05;100.00;98770.91;5099812;28;20611;-80
2023/11/21 04:47:19;;;;;;;3.03;1.17;;;;;;;7.03;100.00;98770.34;5090213;28;20990;-79
2023/11/21 04:49:49;;;;;;;3.80;1.10;;;;;;;7.07;100.00;98774.19;5093578;28;20288;-78
2023/11/21 04:52:16;;;;;;;5.47;1.40;;;;;;;7.01;100.00;98774.22;5098965;28;20734;-79
2023/11/21 04:54:42;;;;;;;4.27;1.30;;;;;;;6.99;100.00;98779.78;5100854;28;20195;-79
2023/11/21 04:57:09;;;;;;;3.10;1.30;;;;;;;6.90;100.00;98775.78;5089470;28;20753;-81
2023/11/21 04:59:36;;;;;;;3.30;1.20;;;;;;;6.83;100.00;98771.50;5090863;28;20236;-80
2023/11/21 05:02:03;;;;;;;2.70;1.13;;;;;;;6.79;100.00;98772.97;5088872;28;20207;-80
2023/11/21 05:04:31;;;;;;;5.10;1.73;;;;;;;6.67;100.00;98770.19;5084870;28;20314;-81
2023/11/21 05:06:57;;;;;;;4.13;1.57;;;;;;;6.59;100.00;98773.09;5116714;28;20203;-78
2023/11/21 05:09:25;;;;;;;2.83;1.37;;;;;;;6.52;100.00;98775.81;5089458;28;20716;-80
2023/11/21 05:11:53;;;;;;;6.57;1.43;;;;;;;6.52;100.00;98778.47;5108772;28;20654;-78
2023/11/21 05:14:20;;;;;;;2.70;1.23;;;;;;;6.45;100.00;98782.19;5084520;28;20202;-78
2023/11/21 05:16:46;;;;;;;3.53;1.60;;;;;;;6.40;100.00;98782.00;5107506;28;20247;-81
2023/11/21 05:19:13;;;;;;;3.63;1.47;;;;;;;6.34;100.00;98774.91;5098511;28;20188;-80
2023/11/21 05:21:40;;;;;;;3.00;1.30;;;;;;;6.27;100.00;98779.44;5095245;28;20203;-79
2023/11/21 05:24:07;;;;;;;4.17;1.20;;;;;;;6.18;100.00;98778.84;5107573;28;20187;-81
2023/11/21 05:26:34;;;;;;;4.60;1.33;;;;;;;6.14;100.00;98783.78;5094467;28;20201;-80
2023/11/21 05:29:00;;;;;;;3.37;1.63;;;;;;;6.08;100.00;98781.97;5098095;28;20190;-81
2023/11/21 05:31:27;;;;;;;4.50;1.20;;;;;;;6.02;100.00;98782.00;5107450;28;20192;-79
2023/11/21 05:33:54;;;;;;;2.70;1.33;;;;;;;5.98;100.00;98788.75;5111312;28;20655;-78
2023/11/21 05:36:20;;;;;;;4.87;1.40;;;;;;;5.92;100.00;98794.94;5101551;28;20284;-79
2023/11/21 05:38:47;;;;;;;4.83;1.17;;;;;;;5.85;100.00;98802.88;5102173;28;20227;-79
2023/11/21 05:41:15;;;;;;;4.57;1.30;;;;;;;5.74;100.00;98806.19;5099966;28;20198;-80
2023/11/21 05:43:41;;;;;;;4.83;1.80;;;;;;;5.69;100.00;98806.81;5100194;28;20254;-78
2023/11/21 05:46:09;;;;;;;5.43;2.37;;;;;;;5.63;100.00;98804.19;5103622;28;20188;-78
2023/11/21 05:48:37;;;;;;;4.40;2.13;;;;;;;5.53;100.00;98814.41;5099539;28;20713;-80
2023/11/21 05:51:06;;;;;;;4.03;2.40;;;;;;;5.48;100.00;98819.53;5104034;28;20191;-78
2023/11/21 05:53:33;;;;;;;3.13;2.07;;;;;;;5.49;100.00;98826.47;5098389;28;20668;-80
2023/11/21 05:56:00;;;;;;;6.30;1.80;;;;;;;5.45;100.00;98835.88;5105734;28;20231;-81
2023/11/21 05:58:27;;;;;;;6.30;1.90;;;;;;;5.38;100.00;98838.53;5077930;28;20216;-78
2023/11/21 06:00:53;;;;;;;2.87;1.80;;;;;;;5.29;100.00;98850.41;5100413;28;20214;-78
2023/11/21 06:03:20;;;;;;;4.50;2.70;;;;;;;5.33;100.00;98848.97;5101200;28;20200;-79
2023/11/21 06:05:48;;;;;;;5.20;2.60;;;;;;;5.33;100.00;98841.81;5103410;28;20255;-79
2023/11/21 06:08:16;;;;;;;5.50;2.33;;;;;;;5.33;100.00;98838.34;5102858;27;20294;-79
2023/11/21 06:10:43;;;;;;;4.33;2.40;;;;;;;5.32;100.00;98848.13;5103477;28;20192;-79
2023/11/21 06:13:10;;;;;;;5.90;2.20;;;;;;;5.33;100.00;98844.47;5097936;28;20192;-81
2023/11/21 06:15:37;;;;;;;3.17;1.90;;;;;;;5.32;100.00;98845.47;5095452;28;20240;-81
2023/11/21 06:18:05;;;;;;;5.17;1.93;;;;;;;5.33;100.00;98843.66;5090106;28;20192;-81
2023/11/21 06:20:32;;;;;;;3.30;1.87;;;;;;;5.31;100.00;98837.75;5101735;28;20220;-81
2023/11/21 06:23:03;;;;;;;3.13;1.80;;;;;;;5.35;100.00;98849.59;5099944;28;20274;-78
2023/11/21 06:25:33;;;;;;;5.47;2.30;;;;;;;5.44;100.00;98851.00;5099571;28;20266;-80
2023/11/21 06:27:59;;;;;;;5.13;2.20;;;;;;;5.50;100.00;98855.50;5107890;28;20245;-80
2023/11/21 06:30:26;;;;;;;4.60;2.37;;;;;;;5.56;100.00;98857.31;5098162;28;20713;-79
2023/11/21 06:32:53;;;;;;;4.80;2.20;;;;;;;5.64;100.00;98856.31;5098846;28;20203;-79
2023/11/21 06:35:20;;;;;;;4.87;2.47;;;;;;;5.74;100.00;98862.81;5092231;28;20689;-80
2023/11/21 06:37:47;;;;;;;4.97;2.33;;;;;;;5.84;100.00;98867.69;5093940;28;20315;-80
2023/11/21 06:40:18;;;;;;;3.80;2.20;;;;;;;5.92;100.00;98867.53;5094594;28;20200;-78
2023/11/21 06:42:46;;;;;;;5.83;2.47;;;;;;;6.03;100.00;98872.19;5097351;28;20215;-79
2023/11/21 06:45:14;;;;;;;3.80;2.20;;;;;;;6.09;100.00;98868.72;5091896;28;20200;-80
2023/11/21 06:47:41;;;;;;;7.20;2.30;;;;;;;6.17;100.00;98876.44;5091894;28;20238;-78
2023/11/21 06:50:09;;;;;;;6.47;2.70;;;;;;;6.24;100.00;98879.09;5102826;28;20195;-79
2023/11/21 06:52:35;;;;;;;4.17;2.30;;;;;;;6.35;100.00;98885.59;5093602;28;20554;-80
2023/11/21 06:55:03;;;;;;;5.50;2.00;;;;;;;6.38;100.00;98877.22;5098746;28;20196;-80
2023/11/21 06:57:31;;;;;;;6.07;2.20;;;;;;;6.48;100.00;98883.72;5094436;28;20218;-79
2023/11/21 06:59:57;;;;;;;4.07;2.13;;;;;;;6.53;100.00;98894.53;5104575;28;20271;-79
2023/11/21 07:02:24;;;;;;;4.60;2.00;;;;;;;6.62;100.00;98895.13;5100670;28;20648;-79
2023/11/21 07:04:51;;;;;;;4.20;2.00;;;;;;;6.70;100.00;98894.06;5100797;28;20207;-79
2023/11/21 07:07:19;;;;;;;5.30;2.10;;;;;;;6.76;100.00;98887.88;5093156;28;20676;-79
2023/11/21 07:09:45;;;;;;;4.97;2.27;;;;;;;6.83;100.00;98893.97;5094821;28;20200;-79
2023/11/21 07:12:12;;;;;;;5.67;2.13;;;;;;;6.90;100.00;98897.44;5093411;28;20723;-79
2023/11/21 07:14:41;;;;;;;4.63;2.03;;;;;;;6.96;100.00;98900.03;5089505;28;20184;-79
2023/11/21 07:17:07;;;;;;;6.47;2.30;;;;;;;7.04;100.00;98907.81;5096357;28;20226;-80
2023/11/21 07:19:34;;;;;;;4.10;1.67;;;;;;;7.12;100.00;98897.91;5095839;28;20218;-80
2023/11/21 07:22:01;;;;;;;5.67;1.60;;;;;;;7.22;100.00;98898.25;5096458;28;20192;-79
2023/11/21 07:24:27;;;;;;;4.00;1.80;;;;;;;7.29;100.00;98902.50;5094448;28;20216;-78
2023/11/21 07:26:56;;;;;;;3.97;1.60;;;;;;;7.39;100.00;98896.69;5095749;28;20187;-80
2023/11/21 07:29:25;;;;;;;5.57;1.40;;;;;;;7.51;100.00;98905.63;5094678;28;20219;-80
2023/11/21 07:31:53;;;;;;;6.47;1.53;;;;;;;7.65;100.00;98899.13;5079505;28;20671;-79
2023/11/21 07:34:21;;;;;;;5.20;1.60;;;;;;;7.86;100.00;98896.09;5101802;28;20248;-78
2023/11/21 07:36:47;;;;;;;4.30;1.60;;;;;;;8.08;100.00;98903.66;5099641;28;20214;-79
2023/11/21 07:39:16;;;;;;;4.70;1.33;;;;;;;8.28;100.00;98898.94;5101015;28;20551;-80
2023/11/21 07:41:48;;;;;;;5.60;1.30;;;;;;;8.48;100.00;98891.56;5096596;28;20713;-78
2023/11/21 07:44:19;;;;;;;6.07;1.50;;;;;;;8.68;100.00;98896.63;5092031;28;20193;-80
2023/11/21 07:46:47;;;;;;;5.80;1.47;;;;;;;8.84;100.00;98898.69;5099035;28;20699;-80
2023/11/21 07:49:15;;;;;;;3.03;1.30;;;;;;;9.04;100.00;98899.25;5102455;28;20730;-79
2023/11/21 07:51:43;;;;;;;5.93;1.30;;;;;;;9.21;100.00;98891.38;5103744;28;20211;-79
2023/11/21 07:54:10;;;;;;;6.30;2.13;;;;;;;9.40;100.00;98903.63;5077579;28;20197;-79
2023/11/21 07:56:37;;;;;;;5.03;1.50;;;;;;;9.57;100.00;98904.59;5095591;28;20211;-79
2023/11/21 07:59:04;;;;;;;4.73;1.40;;;;;;;9.74;100.00;98899.38;5102468;28;20215;-79
2023/11/21 08:01:31;;;;;;;4.93;1.40;;;;;;;9.88;100.00;98905.31;5094479;28;20188;-79
2023/11/21 08:04:01;;;;;;;4.17;1.63;;;;;;;9.97;100.00;98896.72;5102287;28;20196;-79
2023/11/21 08:06:30;;;;;;;4.93;2.33;;;;;;;10.07;100.00;98909.50;5104646;28;20272;-80
2023/11/21 08:08:57;;;;;;;4.93;2.40;;;;;;;10.10;100.00;98903.69;5101234;28;20200;-80
2023/11/21 08:11:24;;;;;;;6.63;2.30;;;;;;;10.08;100.00;98903.91;5098920;28;20194;-80
2023/11/21 08:13:51;;;;;;;6.03;2.10;;;;;;;10.04;100.00;98908.09;5096476;28;20227;-82
2023/11/21 08:16:17;;;;;;;5.57;2.13;;;;;;;9.95;100.00;98906.00;5098901;28;20193;-81
2023/11/21 08:18:44;;;;;;;5.40;1.77;;;;;;;9.87;100.00;98899.16;5067777;28;20206;-78
2023/11/21 08:21:12;;;;;;;7.20;1.63;;;;;;;9.84;100.00;98904.97;5092438;28;20200;-80
2023/11/21 08:23:39;;;;;;;3.20;1.13;;;;;;;9.80;100.00;98908.34;5087683;28;20262;-78
2023/11/21 08:26:06;;;;;;;5.27;1.80;;;;;;;9.81;100.00;98901.94;5089059;28;20277;-79
2023/11/21 08:28:33;;;;;;;4.57;1.47;;;;;;;9.82;100.00;98901.72;5090455;28;20196;-79
2023/11/21 08:31:01;;;;;;;2.93;1.40;;;;;;;9.80;100.00;98898.44;5091506;28;20200;-81
2023/11/21 08:33:27;;;;;;;5.43;1.80;;;;;;;9.80;100.00;98903.00;5100775;28;20249;-78
2023/11/21 08:35:54;;;;;;;5.43;1.60;;;;;;;9.84;100.00;98906.84;5094593;28;20196;-80
2023/11/21 08:38:21;;;;;;;5.30;1.70;;;;;;;9.89;100.00;98899.72;5101231;28;20639;-80
2023/11/21 08:40:48;;;;;;;6.43;1.53;;;;;;;10.00;100.00;98896.25;5093501;28;20261;-79
2023/11/21 08:43:16;;;;;;;3.33;1.33;;;;;;;10.12;100.00;98899.72;5096102;28;20200;-80
2023/11/21 08:45:43;;;;;;;4.07;1.40;;;;;;;10.17;100.00;98899.06;5099935;28;20219;-79
2023/11/21 08:48:11;;;;;;;3.10;1.40;;;;;;;10.22;100.00;98890.34;5096318;28;20232;-81
2023/11/21 08:50:38;;;;;;;6.60;1.47;;;;;;;10.38;100.00;98884.22;5093379;28;20194;-79
2023/11/21 08:53:05;;;;;;;3.70;1.50;;;;;;;10.46;100.00;98889.22;5090282;28;20230;-80
2023/11/21 08:55:37;;;;;;;3.83;1.40;;;;;;;10.52;100.00;98889.09;5106844;28;20278;-80
2023/11/21 08:58:05;;;;;;;5.03;1.40;;;;;;;10.59;100.00;98897.78;5082363;28;20220;-79
2023/11/21 09:00:33;;;;;;;2.80;1.40;;;;;;;10.66;100.00;98899.53;5101011;28;20238;-79
2023/11/21 09:03:01;;;;;;;6.53;1.20;;;;;;;10.87;100.00;98901.56;5106308;28;20655;-79
2023/11/21 09:05:28;;;;;;;3.50;1.20;;;;;;;11.07;100.00;98901.94;5099875;28;20219;-80
2023/11/21 09:07:55;;;;;;;3.30;1.27;;;;;;;11.22;100.00;98901.41;5097580;28;20191;-79
2023/11/21 09:10:23;;;;;;;2.33;1.03;;;;;;;11.27;100.00;98905.00;5096493;28;20189;-79
2023/11/21 09:12:51;;;;;;;2.63;1.10;;;;;;;11.23;100.00;98903.03;5090455;28;20188;-81
2023/11/21 09:15:20;;;;;;;2.77;1.10;;;;;;;11.34;100.00;98905.63;5089141;28;20196;-79
2023/11/21 09:17:47;;;;;;;4.60;0.90;;;;;;;11.37;100.00;98899.00;5094405;28;20714;-79
2023/11/21 09:20:14;;;;;;;2.87;0.97;;;;;;;11.34;100.00;98899.47;5092481;28;20203;-80
2023/11/21 09:22:42;;;;;;;3.33;0.97;;;;;;;11.27;100.00;98886.22;5090387;28;20216;-80
2023/11/21 09:25:08;;;;;;;5.30;1.30;;;;;;;11.14;100.00;98888.41;5089128;28;20657;-79
2023/11/21 09:27:35;;;;;;;3.40;1.00;;;;;;;11.11;100.00;98889.69;5101152;28;20207;-81
2023/11/21 09:30:05;;;;;;;2.73;1.20;;;;;;;10.84;100.00;98894.00;5107731;28;20678;-79
2023/11/21 09:32:31;;;;;;;4.37;1.13;;;;;;;10.82;100.00;98893.44;5096489;28;20187;-78
2023/11/21 09:35:00;;;;;;;4.23;0.90;;;;;;;10.83;100.00;98898.53;5099227;28;20203;-80
2023/11/21 09:37:27;;;;;;;3.30;1.10;;;;;;;10.81;100.00;98889.94;5105241;28;20242;-79
2023/11/21 09:39:55;;;;;;;2.73;1.00;;;;;;;10.86;100.00;98900.75;5103893;28;20207;-80
2023/11/21 09:42:36;;;;;;;3.43;1.10;;;;;;;10.77;100.00;98893.34;5087215;28;20665;-80
2023/11/21 09:45:19;;;;;;;2.73;0.87;;;;;;;10.87;100.00;98898.91;5088927;28;20192;-79
2023/11/21 09:47:46;;;;;;;2.03;0.80;;;;;;;11.11;100.00;98896.91;5081575;28;20231;-80
2023/11/21 09:50:21;;;;;;;4.13;1.10;;;;;;;11.46;100.00;98895.69;5098622;28;20184;-79
2023/11/21 09:52:54;;;;;;;2.90;0.70;;;;;;;11.74;100.00;98886.75;5108107;28;20244;-81
2023/11/21 09:55:21;;;;;;;2.93;0.80;;;;;;;11.77;100.00;98878.22;5100713;28;20194;-78
2023/11/21 09:57:51;;;;;;;1.00;0.60;;;;;;;11.70;100.00;98893.66;5092332;28;20310;-75
2023/11/21 10:00:20;;;;;;;1.13;0.60;;;;;;;11.88;100.00;98884.56;5104448;28;20237;-73
2023/11/21 10:02:49;;;;;;;1.70;0.60;;;;;;;12.04;100.00;98880.22;5104912;28;20204;-73
2023/11/21 10:05:17;;;;;;;1.73;0.63;;;;;;;12.13;100.00;98886.81;5101177;28;20264;-73
2023/11/21 10:07:47;;;;;;;1.27;0.50;;;;;;;12.07;100.00;98880.53;5098780;28;20214;-73
2023/11/21 10:10:16;;;;;;;3.27;0.90;;;;;;;12.10;100.00;98877.34;5103943;28;20198;-74
2023/11/21 10:12:46;;;;;;;1.93;0.83;;;;;;;12.00;100.00;98881.75;5099198;28;20215;-74
2023/11/21 10:15:16;;;;;;;1.47;0.60;;;;;;;12.07;100.00;98874.34;5103242;28;20192;-77
2023/11/21 10:17:45;;;;;;;1.83;0.70;;;;;;;11.83;100.00;98866.50;5103453;28;20216;-80
2023/11/21 10:20:13;;;;;;;1.70;0.77;;;;;;;11.73;100.00;98860.97;5112250;28;20195;-79
2023/11/21 10:22:41;;;;;;;1.47;0.80;;;;;;;11.64;100.00;98867.78;5102102;28;20679;-81
2023/11/21 10:25:09;;;;;;;3.73;0.90;;;;;;;11.59;100.00;98858.84;5088476;28;20193;-81
2023/11/21 10:27:40;;;;;;;1.90;0.80;;;;;;;11.61;100.00;98865.59;5103321;28;20287;-79
2023/11/21 10:30:11;;;;;;;3.20;1.03;;;;;;;11.68;100.00;98871.59;5100656;28;20199;-78
2023/11/21 10:32:40;;;;;;;3.43;1.00;;;;;;;11.66;100.00;98865.69;5108873;28;20195;-79
2023/11/21 10:35:10;;;;;;;2.70;1.10;;;;;;;11.74;100.00;98859.13;5097704;28;20651;-78
2023/11/21 10:37:41;;;;;;;3.23;0.87;;;;;;;11.78;100.00;98863.75;5104133;28;20216;-79
2023/11/21 10:40:11;;;;;;;2.20;1.10;;;;;;;11.71;100.00;98868.41;5093533;28;20192;-80
2023/11/21 10:42:40;;;;;;;3.60;0.80;;;;;;;11.94;100.00;98869.34;5099570;28;20304;-80
2023/11/21 10:45:14;;;;;;;2.47;0.80;;;;;;;12.00;100.00;98863.78;5094718;28;20521;-81
2023/11/21 10:47:42;;;;;;;2.87;1.00;;;;;;;11.90;100.00;98872.50;5092894;28;20224;-79
2023/11/21 10:50:10;;;;;;;2.20;0.90;;;;;;;11.81;100.00;98865.94;5099562;28;20189;-80
2023/11/21 10:52:40;;;;;;;2.50;1.00;;;;;;;12.08;100.00;98874.13;5100791;28;20188;-79
2023/11/21 10:55:21;;;;;;;3.17;0.97;;;;;;;12.16;100.00;98865.63;5098289;28;20254;-79
2023/11/21 10:57:49;;;;;;;2.83;0.90;;;;;;;12.29;100.00;98861.75;5096780;28;20213;-78
2023/11/21 11:00:19;;;;;;;2.57;0.90;;;;;;;12.27;100.00;98862.00;5096576;28;20192;-79
2023/11/21 11:02:49;;;;;;;2.63;1.07;;;;;;;12.13;100.00;98854.59;5096249;28;20208;-78
2023/11/21 11:05:19;;;;;;;2.87;0.77;;;;;;;11.96;100.00;98859.97;5107900;27;20192;-79
2023/11/21 11:07:48;;;;;;;1.37;0.90;;;;;;;11.80;100.00;98842.03;5079628;28;20197;-79
2023/11/21 11:10:15;;;;;;;3.93;1.10;;;;;;;11.52;100.00;98850.16;5084345;28;20490;-79
2023/11/21 11:12:42;;;;;;;1.10;0.50;;;;;;;11.58;100.00;98849.97;5103648;28;20203;-80
2023/11/21 11:15:09;;;;;;;1.07;0.57;;;;;;;11.58;100.00;98841.13;5105015;28;20644;-79
2023/11/21 11:17:41;;;;;;;1.50;0.70;;;;;;;11.49;100.00;98841.53;5096683;28;20212;-78
2023/11/21 11:20:11;;;;;;;1.53;0.70;;;;;;;11.56;100.00;98830.66;5100527;28;20199;-78
2023/11/21 11:22:43;;;;;;;1.57;0.70;;;;;;;11.56;100.00;98833.34;5074177;28;20300;-80
2023/11/21 11:25:52;;;;;;;1.97;0.67;;;;;;;11.48;100.00;98841.75;5098794;28;20670;-80
2023/11/21 11:28:29;;;;;;;1.77;0.57;;;;;;;11.40;100.00;98832.25;5093382;28;20180;-79
2023/11/21 11:31:21;;;;;;;2.03;0.60;;;;;;;11.34;100.00;98835.91;5098222;28;20746;-78
2023/11/21 11:33:58;;;;;;;2.00;0.73;;;;;;;11.37;100.00;98837.31;5041604;28;20213;-79
2023/11/21 11:36:29;;;;;;;0.97;0.50;;;;;;;11.49;100.00;98838.03;5099503;28;20224;-79
2023/11/21 11:38:56;;;;;;;2.00;0.50;;;;;;;11.59;100.00;98846.25;5093244;28;20219;-81
2023/11/21 11:41:32;;;;;;;1.60;0.63;;;;;;;11.93;100.00;98840.88;5110385;28;20211;-79
2023/11/21 11:44:01;;;;;;;2.67;0.60;;;;;;;12.24;100.00;98840.22;5106342;28;20678;-78
2023/11/21 11:46:41;;;;;;;2.43;0.60;;;;;;;12.36;100.00;98847.06;5107398;28;20193;-79
2023/11/21 11:49:09;;;;;;;2.23;0.60;;;;;;;12.74;100.00;98840.00;5103733;28;20310;-78
2023/11/21 11:51:35;;;;;;;1.10;0.70;;;;;;;12.87;100.00;98842.31;5112087;28;20210;-80
2023/11/21 11:54:03;;;;;;;1.77;0.70;;;;;;;12.87;100.00;98841.50;5106957;28;20195;-77